Time;durP1;ratioP1;P1;durP2;ratioP2;P2;SDS_P1;SDS_P2;PMS_P1;PMS_P2;Temp;Humidity;BMP_temperature;BMP_pressure;BME280_temperature;BME280_humidity;BME280_pressure;Samples;Min_cycle;Max_cycle;Signal;HPM_P1;HPM_P2
2021/07/27 00:00:40;;;;;;;5.00;3.25;;;26.20;46.30;;;;;;6323709;28;20035;-75
2021/07/27 00:03:41;;;;;;;4.68;3.30;;;26.20;46.40;;;;;;6323396;28;20032;-75
2021/07/27 00:06:42;;;;;;;3.90;2.88;;;26.20;46.60;;;;;;6325055;28;20469;-75
2021/07/27 00:09:43;;;;;;;6.70;3.13;;;26.10;46.60;;;;;;6324566;28;20028;-75
2021/07/27 00:12:44;;;;;;;8.35;3.53;;;26.10;46.70;;;;;;6324944;28;20035;-75
2021/07/27 00:15:44;;;;;;;5.70;2.72;;;26.10;46.80;;;;;;6323978;28;20132;-75
2021/07/27 00:18:45;;;;;;;8.18;2.75;;;26.10;46.80;;;;;;6324456;28;20036;-75
2021/07/27 00:21:46;;;;;;;5.13;3.20;;;26.10;46.90;;;;;;6325108;28;20131;-76
2021/07/27 00:24:47;;;;;;;7.20;3.05;;;26.00;46.90;;;;;;6325685;28;20109;-75
2021/07/27 00:27:48;;;;;;;6.07;2.80;;;26.00;47.00;;;;;;6349689;28;20027;-75
2021/07/27 00:30:49;;;;;;;4.50;2.42;;;25.90;47.00;;;;;;6349567;28;20032;-75
2021/07/27 00:33:50;;;;;;;6.53;2.75;;;25.90;47.20;;;;;;6310926;28;20036;-76
2021/07/27 00:36:51;;;;;;;8.07;3.97;;;25.90;47.40;;;;;;6330698;28;20085;-76
2021/07/27 00:39:52;;;;;;;5.50;3.42;;;25.90;47.70;;;;;;6331149;28;20444;-75
2021/07/27 00:43:03;;;;;;;5.63;3.35;;;25.80;47.70;;;;;;6324105;28;20031;-75
2021/07/27 00:46:04;;;;;;;5.07;3.00;;;25.80;48.00;;;;;;6348931;28;20099;-75
2021/07/27 00:49:05;;;;;;;6.35;3.03;;;25.80;48.00;;;;;;6331436;28;20035;-76
2021/07/27 00:52:06;;;;;;;8.50;3.50;;;25.70;48.10;;;;;;6330739;28;20043;-76
2021/07/27 00:55:08;;;;;;;8.77;3.22;;;25.70;48.10;;;;;;6330494;28;20456;-76
2021/07/27 00:58:08;;;;;;;6.32;3.60;;;25.70;48.10;;;;;;6313159;28;20032;-76
2021/07/27 01:01:09;;;;;;;8.15;3.20;;;25.70;48.20;;;;;;6330912;28;20042;-76
2021/07/27 01:04:10;;;;;;;6.30;3.13;;;25.70;48.20;;;;;;6310335;28;20038;-76
2021/07/27 01:07:11;;;;;;;5.97;3.08;;;25.60;48.20;;;;;;6348228;28;20449;-76
2021/07/27 01:10:16;;;;;;;6.47;3.60;;;25.60;48.30;;;;;;6348516;28;20035;-76
2021/07/27 01:13:17;;;;;;;6.07;3.17;;;25.60;48.60;;;;;;6330429;28;20097;-76
2021/07/27 01:16:29;;;;;;;4.43;2.85;;;25.50;48.80;;;;;;6329176;28;20062;-76
2021/07/27 01:42:18;;;;;;;11.20;3.33;;;25.40;49.60;;;;;;6244373;28;20348;-76
2021/07/27 01:45:19;;;;;;;7.53;3.30;;;25.40;49.80;;;;;;6218957;28;20040;-76
2021/07/27 01:48:26;;;;;;;5.32;3.30;;;25.30;49.90;;;;;;6211475;28;20041;-76
2021/07/27 01:51:27;;;;;;;6.97;3.40;;;25.30;50.20;;;;;;6222257;28;20049;-76
2021/07/27 01:54:40;;;;;;;7.03;3.25;;;25.30;50.20;;;;;;6244074;28;20041;-76
2021/07/27 01:57:41;;;;;;;6.18;3.00;;;25.30;50.30;;;;;;6244030;28;20458;-76
2021/07/27 02:00:42;;;;;;;8.48;3.35;;;25.30;50.30;;;;;;6244137;28;20044;-77
2021/07/27 02:03:43;;;;;;;10.32;3.55;;;25.20;50.40;;;;;;6220503;28;20417;-76
2021/07/27 02:06:48;;;;;;;5.68;3.15;;;25.20;50.50;;;;;;6303272;28;20418;-76
2021/07/27 02:09:51;;;;;;;7.32;3.42;;;25.20;50.60;;;;;;6312821;28;20060;-76
2021/07/27 02:13:00;;;;;;;6.03;3.17;;;25.10;50.70;;;;;;6351483;28;20365;-76
2021/07/27 02:16:04;;;;;;;10.02;3.38;;;25.10;50.90;;;;;;6333433;28;20492;-76
2021/07/27 02:19:05;;;;;;;5.72;3.28;;;25.10;51.00;;;;;;6333556;28;20556;-76
2021/07/27 02:22:06;;;;;;;6.57;3.08;;;25.10;51.20;;;;;;6299085;28;20104;-76
2021/07/27 02:25:08;;;;;;;5.93;3.25;;;25.10;51.30;;;;;;6333024;28;20048;-76
2021/07/27 02:28:13;;;;;;;6.68;3.15;;;25.10;51.50;;;;;;6350779;28;20468;-76
2021/07/27 02:31:20;;;;;;;6.28;3.22;;;25.00;51.50;;;;;;6333152;28;20380;-76
2021/07/27 02:34:21;;;;;;;5.03;3.13;;;25.00;51.70;;;;;;6332022;28;20445;-76
2021/07/27 02:37:22;;;;;;;12.93;3.60;;;25.00;52.00;;;;;;6331749;28;20039;-76
2021/07/27 02:40:23;;;;;;;7.80;3.10;;;24.90;52.00;;;;;;6316769;28;20070;-76
2021/07/27 02:43:24;;;;;;;6.22;3.28;;;24.90;52.10;;;;;;6333001;28;20073;-76
2021/07/27 02:46:25;;;;;;;5.38;3.15;;;24.80;52.20;;;;;;6350844;28;20040;-76
2021/07/27 02:49:26;;;;;;;5.85;3.05;;;24.80;52.40;;;;;;6332722;28;20035;-76
2021/07/27 02:52:27;;;;;;;6.78;3.55;;;24.70;52.40;;;;;;6318949;28;20043;-76
2021/07/27 02:55:28;;;;;;;8.35;3.53;;;24.70;52.60;;;;;;6315775;28;20384;-76
2021/07/27 02:58:30;;;;;;;14.18;4.20;;;24.70;52.70;;;;;;6351260;28;20043;-76
2021/07/27 03:01:31;;;;;;;9.68;4.18;;;24.70;53.00;;;;;;6332976;28;20028;-76
2021/07/27 03:04:32;;;;;;;5.85;3.08;;;24.60;53.70;;;;;;6332718;28;20427;-76
2021/07/27 03:10:46;;;;;;;6.00;3.45;;;24.50;53.20;;;;;;6331169;28;20032;-76
2021/07/27 03:13:47;;;;;;;5.50;3.28;;;24.50;53.20;;;;;;6331174;28;20105;-76
2021/07/27 03:16:48;;;;;;;9.63;3.70;;;24.50;53.20;;;;;;6331281;28;20031;-76
2021/07/27 03:19:49;;;;;;;8.15;3.38;;;24.50;53.20;;;;;;6329651;28;20040;-76
2021/07/27 03:22:51;;;;;;;6.97;3.75;;;24.50;53.20;;;;;;6329410;28;20031;-76
2021/07/27 03:25:52;;;;;;;6.47;3.15;;;24.50;53.20;;;;;;6296237;28;20105;-76
2021/07/27 03:28:53;;;;;;;10.32;3.38;;;24.50;53.20;;;;;;6323410;28;20036;-76
2021/07/27 03:31:54;;;;;;;7.25;3.67;;;24.50;53.20;;;;;;6329963;28;20360;-76
2021/07/27 03:34:55;;;;;;;11.80;3.70;;;24.50;53.80;;;;;;6314457;28;20035;-76
2021/07/27 03:37:56;;;;;;;6.55;3.45;;;24.50;53.30;;;;;;6330881;28;20028;-76
2021/07/27 03:41:06;;;;;;;7.13;3.63;;;24.40;53.20;;;;;;6348720;28;20035;-76
2021/07/27 03:44:20;;;;;;;6.80;3.33;;;24.40;53.40;;;;;;6307274;28;20032;-77
2021/07/27 03:47:21;;;;;;;7.70;3.65;;;24.40;53.40;;;;;;6331377;28;20046;-76
2021/07/27 03:50:23;;;;;;;8.20;3.97;;;24.30;53.30;;;;;;6349264;28;20465;-76
2021/07/27 03:53:25;;;;;;;6.28;3.80;;;24.30;53.30;;;;;;6313902;28;20405;-76
2021/07/27 03:56:26;;;;;;;11.35;4.10;;;24.30;53.30;;;;;;6349120;28;20118;-76
2021/07/27 03:59:28;;;;;;;6.53;3.80;;;24.30;53.20;;;;;;6330667;28;20042;-76
2021/07/27 04:02:29;;;;;;;6.13;3.35;;;24.30;53.30;;;;;;6347672;28;20375;-76
2021/07/27 04:05:30;;;;;;;11.77;5.85;;;24.30;53.30;;;;;;6348728;28;20036;-76
2021/07/27 04:08:31;;;;;;;13.05;4.95;;;24.30;53.40;;;;;;6323084;28;20028;-76
2021/07/27 04:11:31;;;;;;;6.25;3.58;;;24.30;53.50;;;;;;6347343;28;20108;-75
2021/07/27 04:14:35;;;;;;;8.93;3.60;;;24.20;53.40;;;;;;6348578;28;20047;-75
2021/07/27 04:17:36;;;;;;;10.93;3.83;;;24.20;53.40;;;;;;6348347;28;20080;-75
2021/07/27 04:20:37;;;;;;;9.15;3.50;;;24.20;53.30;;;;;;6348621;28;20031;-75
2021/07/27 04:23:38;;;;;;;8.98;3.88;;;24.20;53.40;;;;;;6348168;28;20028;-75
2021/07/27 04:26:39;;;;;;;9.70;3.88;;;24.20;53.40;;;;;;6329203;28;20096;-75
2021/07/27 04:29:40;;;;;;;8.88;3.20;;;24.20;53.50;;;;;;6313596;28;20055;-75
2021/07/27 04:32:42;;;;;;;8.13;3.67;;;24.20;53.50;;;;;;6327608;28;20341;-77
2021/07/27 04:35:43;;;;;;;6.97;3.80;;;24.20;53.40;;;;;;6348028;28;20035;-76
2021/07/27 04:38:44;;;;;;;6.80;3.55;;;24.20;53.40;;;;;;6312120;28;20364;-75
2021/07/27 04:41:45;;;;;;;7.63;3.35;;;24.20;53.40;;;;;;6348033;28;20390;-75
2021/07/27 04:44:46;;;;;;;7.10;3.35;;;24.20;53.30;;;;;;6330442;28;20401;-75
2021/07/27 04:47:47;;;;;;;6.82;3.40;;;24.10;53.30;;;;;;6330248;28;20108;-74
2021/07/27 04:50:48;;;;;;;8.65;4.18;;;24.20;53.30;;;;;;6348108;28;20080;-75
2021/07/27 04:53:51;;;;;;;7.15;4.00;;;24.20;53.30;;;;;;6329472;28;20048;-75
2021/07/27 04:56:51;;;;;;;7.82;3.42;;;24.30;53.20;;;;;;6341028;28;20035;-75
2021/07/27 04:59:52;;;;;;;7.57;3.75;;;24.30;53.00;;;;;;6347353;28;20035;-77
2021/07/27 05:02:53;;;;;;;6.55;3.78;;;24.30;52.80;;;;;;6329909;28;20028;-75
2021/07/27 05:05:54;;;;;;;12.35;4.38;;;24.30;52.70;;;;;;6319562;28;20086;-75
2021/07/27 05:08:55;;;;;;;7.78;3.92;;;24.70;52.80;;;;;;6328984;28;20044;-76
2021/07/27 05:11:58;;;;;;;10.75;3.92;;;24.40;52.70;;;;;;6346831;28;20081;-75
2021/07/27 05:14:59;;;;;;;7.68;3.50;;;24.30;52.60;;;;;;6329522;28;20047;-75
2021/07/27 05:18:00;;;;;;;10.98;3.72;;;24.30;52.60;;;;;;6347238;28;20365;-75
2021/07/27 05:21:01;;;;;;;6.82;3.28;;;24.30;52.70;;;;;;6329378;28;20118;-75
2021/07/27 05:24:02;;;;;;;6.50;3.70;;;24.30;52.70;;;;;;6311806;28;20429;-75
2021/07/27 05:27:03;;;;;;;11.00;3.70;;;24.40;52.70;;;;;;6337951;28;20123;-75
2021/07/27 05:30:05;;;;;;;6.63;3.67;;;24.40;52.70;;;;;;6322116;28;20058;-77
2021/07/27 05:33:06;;;;;;;6.63;3.67;;;24.40;52.80;;;;;;6328865;28;20043;-74
2021/07/27 05:36:07;;;;;;;11.50;3.53;;;24.40;52.80;;;;;;6310624;28;20043;-74
2021/07/27 05:39:08;;;;;;;6.15;3.60;;;24.40;52.70;;;;;;6326976;28;20419;-74
2021/07/27 05:42:09;;;;;;;12.20;3.58;;;24.40;52.60;;;;;;6307842;28;20028;-74
2021/07/27 05:45:10;;;;;;;6.25;3.97;;;24.40;52.60;;;;;;6321915;28;20043;-76
2021/07/27 05:48:11;;;;;;;9.70;3.45;;;24.30;52.50;;;;;;6338311;28;20469;-76
2021/07/27 05:51:14;;;;;;;8.65;4.15;;;24.30;52.70;;;;;;6307320;28;20047;-76
2021/07/27 05:54:19;;;;;;;6.47;4.13;;;24.30;52.70;;;;;;6337361;28;20039;-76
2021/07/27 05:57:19;;;;;;;7.53;4.30;;;24.30;52.80;;;;;;6322998;28;20043;-76
2021/07/27 06:00:21;;;;;;;6.47;3.55;;;24.30;52.80;;;;;;6306880;28;20353;-76
2021/07/27 06:03:22;;;;;;;9.52;4.13;;;24.30;53.10;;;;;;6317913;28;20040;-76
2021/07/27 06:06:23;;;;;;;9.45;3.80;;;24.30;52.70;;;;;;6326634;28;20051;-76
2021/07/27 06:09:23;;;;;;;11.80;4.32;;;24.40;52.70;;;;;;6327139;28;20089;-76
2021/07/27 06:12:24;;;;;;;8.77;4.10;;;24.40;52.70;;;;;;6345574;28;20127;-76
2021/07/27 06:15:25;;;;;;;10.57;4.82;;;24.40;52.70;;;;;;6326573;28;20051;-76
2021/07/27 06:18:26;;;;;;;6.20;3.78;;;24.40;52.70;;;;;;6327804;28;20039;-77
2021/07/27 06:21:27;;;;;;;11.77;4.13;;;24.40;52.60;;;;;;6345448;28;20050;-76
2021/07/27 06:24:28;;;;;;;10.50;4.18;;;24.40;52.50;;;;;;6345215;28;20070;-76
2021/07/27 06:27:29;;;;;;;8.18;4.57;;;24.40;52.40;;;;;;6310747;28;20036;-76
2021/07/27 06:30:30;;;;;;;7.35;3.92;;;24.50;52.30;;;;;;6345574;28;20058;-76
2021/07/27 06:33:31;;;;;;;8.32;3.60;;;24.50;52.10;;;;;;6328331;28;20703;-76
2021/07/27 06:36:32;;;;;;;13.75;4.20;;;24.60;52.00;;;;;;6311123;28;20058;-76
2021/07/27 06:39:32;;;;;;;6.97;4.28;;;24.70;51.90;;;;;;6326989;28;20318;-76
2021/07/27 06:42:33;;;;;;;10.40;4.53;;;24.80;51.70;;;;;;6345811;28;20040;-75
2021/07/27 06:45:34;;;;;;;9.68;4.43;;;24.90;51.50;;;;;;6345655;28;20469;-76
2021/07/27 06:48:35;;;;;;;7.50;4.53;;;24.90;51.20;;;;;;6311406;28;20468;-76
2021/07/27 06:51:36;;;;;;;10.43;3.92;;;25.00;51.00;;;;;;6345324;28;20416;-78
2021/07/27 06:54:37;;;;;;;8.15;3.90;;;25.20;50.70;;;;;;6326978;28;20051;-75
2021/07/27 06:57:38;;;;;;;11.98;4.10;;;25.20;50.40;;;;;;6330312;28;20046;-76
2021/07/27 07:00:39;;;;;;;16.50;4.40;;;25.30;50.20;;;;;;6330674;28;20159;-75
2021/07/27 07:03:41;;;;;;;5.95;3.55;;;25.40;50.20;;;;;;6313805;28;20104;-76
2021/07/27 07:06:42;;;;;;;8.23;3.65;;;25.40;50.00;;;;;;6331741;28;20039;-75
2021/07/27 07:09:44;;;;;;;7.95;3.85;;;25.00;49.60;;;;;;6310408;28;20035;-75
2021/07/27 07:12:45;;;;;;;6.95;3.65;;;25.70;49.70;;;;;;6308282;28;20036;-76
2021/07/27 07:15:45;;;;;;;7.40;3.75;;;25.80;49.40;;;;;;6331656;28;20085;-76
2021/07/27 07:18:46;;;;;;;10.73;5.38;;;25.90;49.40;;;;;;6314138;28;20401;-76
2021/07/27 07:21:47;;;;;;;5.97;3.42;;;26.00;49.20;;;;;;6307891;28;20407;-76
2021/07/27 07:24:48;;;;;;;7.05;3.88;;;26.00;49.00;;;;;;6328826;28;20051;-76
2021/07/27 07:27:49;;;;;;;9.93;3.65;;;26.10;48.80;;;;;;6314264;28;20376;-76
2021/07/27 07:30:50;;;;;;;8.88;3.67;;;26.10;48.50;;;;;;6331299;28;20042;-75
2021/07/27 07:33:52;;;;;;;9.38;4.07;;;26.20;48.50;;;;;;6348819;28;20035;-75
2021/07/27 07:36:53;;;;;;;7.88;4.07;;;26.90;48.80;;;;;;6314049;28;20032;-76
2021/07/27 07:39:54;;;;;;;10.50;4.03;;;26.50;48.20;;;;;;6347787;28;20365;-75
2021/07/27 07:43:02;;;;;;;8.05;3.72;;;26.70;47.90;;;;;;6348765;28;20050;-75
2021/07/27 07:46:03;;;;;;;5.95;3.80;;;26.80;47.30;;;;;;6325620;28;20109;-76
2021/07/27 07:49:06;;;;;;;9.15;3.40;;;26.90;47.10;;;;;;6332427;28;20138;-76
2021/07/27 07:52:07;;;;;;;18.40;4.28;;;27.00;46.80;;;;;;6314593;28;20487;-77
2021/07/27 07:55:09;;;;;;;7.13;3.78;;;27.10;46.50;;;;;;6331388;28;20039;-76
2021/07/27 07:58:10;;;;;;;6.40;3.28;;;27.10;46.30;;;;;;6314529;28;20122;-75
2021/07/27 08:01:11;;;;;;;11.20;3.80;;;27.20;46.00;;;;;;6330583;28;21383;-76
2021/07/27 08:04:12;;;;;;;12.23;3.55;;;27.30;45.80;;;;;;6332001;28;20699;-76
2021/07/27 08:07:13;;;;;;;9.60;3.40;;;27.40;45.50;;;;;;6349090;28;20047;-76
2021/07/27 08:10:15;;;;;;;8.68;3.33;;;27.50;45.40;;;;;;6331305;28;20028;-77
2021/07/27 08:13:16;;;;;;;7.50;3.88;;;27.60;45.30;;;;;;6314203;28;20453;-76
2021/07/27 08:16:17;;;;;;;10.38;3.78;;;27.70;45.30;;;;;;6331017;28;20049;-75
2021/07/27 08:19:18;;;;;;;9.27;3.15;;;27.80;45.10;;;;;;6331048;28;20114;-76
2021/07/27 08:22:19;;;;;;;7.70;2.85;;;27.80;44.90;;;;;;6348009;28;20032;-76
2021/07/27 08:25:22;;;;;;;7.63;3.53;;;27.90;44.80;;;;;;6329945;28;20428;-77
2021/07/27 08:28:22;;;;;;;8.98;3.92;;;28.00;44.60;;;;;;6329554;28;20051;-75
2021/07/27 08:31:23;;;;;;;12.63;3.97;;;28.00;44.40;;;;;;6313758;28;20032;-77
2021/07/27 08:34:24;;;;;;;7.20;3.70;;;27.90;44.50;;;;;;6331442;28;20039;-76
2021/07/27 08:37:27;;;;;;;10.25;3.47;;;27.90;44.60;;;;;;6330178;28;20063;-76
2021/07/27 08:40:34;;;;;;;12.00;4.10;;;28.00;44.70;;;;;;6348258;28;20523;-77
2021/07/27 08:43:35;;;;;;;8.68;4.32;;;28.00;45.30;;;;;;6330593;28;20027;-75
2021/07/27 08:46:38;;;;;;;9.65;3.60;;;28.00;44.70;;;;;;6296593;28;20024;-76
2021/07/27 08:49:41;;;;;;;10.05;3.53;;;28.10;44.70;;;;;;6307353;28;20083;-76
2021/07/27 08:52:42;;;;;;;10.75;3.67;;;28.10;44.40;;;;;;6313068;28;20038;-76
2021/07/27 08:55:43;;;;;;;7.38;3.20;;;28.30;44.30;;;;;;6314627;28;20047;-76
2021/07/27 08:58:44;;;;;;;17.63;3.97;;;28.40;43.90;;;;;;6330200;28;20114;-77
2021/07/27 09:01:45;;;;;;;9.90;3.95;;;28.60;43.70;;;;;;6347823;28;20032;-77
2021/07/27 09:04:46;;;;;;;11.45;5.35;;;28.80;43.40;;;;;;6329103;28;20129;-76
2021/07/27 09:07:47;;;;;;;15.13;6.78;;;28.90;43.10;;;;;;6329396;28;20043;-77
2021/07/27 09:10:51;;;;;;;8.13;4.53;;;28.90;43.10;;;;;;6329744;28;20366;-76
2021/07/27 09:13:56;;;;;;;11.55;4.63;;;28.80;43.30;;;;;;6329512;28;20035;-79
2021/07/27 09:16:58;;;;;;;9.57;4.85;;;28.70;43.50;;;;;;6329890;28;20067;-77
2021/07/27 09:19:59;;;;;;;5.88;3.63;;;28.70;43.70;;;;;;6347027;28;20348;-78
2021/07/27 09:23:03;;;;;;;12.75;3.47;;;28.60;43.80;;;;;;6347141;28;20020;-78
2021/07/27 09:26:10;;;;;;;9.65;4.07;;;28.60;43.80;;;;;;6309817;28;20040;-77
2021/07/27 09:29:10;;;;;;;8.65;3.72;;;28.60;44.00;;;;;;6313139;28;20440;-77
2021/07/27 09:32:19;;;;;;;9.13;3.78;;;28.60;44.00;;;;;;6328928;28;20112;-75
2021/07/27 09:35:23;;;;;;;10.45;3.42;;;28.70;44.00;;;;;;6312044;28;20119;-76
2021/07/27 09:38:26;;;;;;;8.43;3.50;;;28.70;43.80;;;;;;6319032;28;20127;-75
2021/07/27 09:41:29;;;;;;;11.32;4.63;;;28.80;43.80;;;;;;6329309;28;20039;-75
2021/07/27 09:44:31;;;;;;;7.18;3.65;;;29.00;43.60;;;;;;6344083;28;20031;-75
2021/07/27 09:47:32;;;;;;;10.18;4.07;;;29.10;43.40;;;;;;6331785;28;20027;-76
2021/07/27 09:50:34;;;;;;;9.50;4.22;;;29.20;43.30;;;;;;6311820;28;20032;-75
2021/07/27 09:53:35;;;;;;;12.68;3.90;;;29.30;43.10;;;;;;6346335;28;20031;-76
2021/07/27 09:56:36;;;;;;;12.45;3.78;;;29.40;43.00;;;;;;6346723;28;20055;-75
2021/07/27 09:59:37;;;;;;;15.95;5.60;;;29.40;42.90;;;;;;6347318;28;20040;-77
2021/07/27 10:02:42;;;;;;;18.38;6.65;;;29.50;42.90;;;;;;6346341;28;20420;-77
2021/07/27 10:05:57;;;;;;;12.15;4.43;;;29.70;42.80;;;;;;6346680;28;20478;-75
2021/07/27 10:09:00;;;;;;;16.77;5.18;;;29.80;42.50;;;;;;6344547;28;20032;-76
2021/07/27 10:12:15;;;;;;;8.07;4.22;;;30.00;42.10;;;;;;6344732;28;20032;-75
2021/07/27 10:15:18;;;;;;;9.77;4.00;;;29.90;41.90;;;;;;6342368;28;20126;-76
2021/07/27 10:18:33;;;;;;;17.30;4.53;;;30.00;42.00;;;;;;6325821;28;20468;-75
2021/07/27 10:21:34;;;;;;;8.75;4.22;;;30.00;42.10;;;;;;6313311;28;20421;-76
2021/07/27 10:24:41;;;;;;;5.50;3.20;;;30.20;41.80;;;;;;6320175;28;20039;-77
2021/07/27 10:27:50;;;;;;;8.75;3.90;;;30.30;41.40;;;;;;6302787;28;20039;-75
2021/07/27 10:31:03;;;;;;;8.63;3.75;;;30.40;41.10;;;;;;6325684;28;20118;-75
2021/07/27 10:34:07;;;;;;;10.07;4.22;;;30.60;40.90;;;;;;6328959;28;20042;-75
2021/07/27 10:37:17;;;;;;;7.15;3.70;;;30.80;40.50;;;;;;6326601;28;20051;-75
2021/07/27 10:40:29;;;;;;;8.98;3.95;;;31.10;40.10;;;;;;6347023;28;20036;-76
2021/07/27 10:43:30;;;;;;;14.40;4.38;;;31.20;39.70;;;;;;6312102;28;20035;-77
2021/07/27 10:46:36;;;;;;;11.05;4.05;;;31.20;39.50;;;;;;6312518;28;20120;-76
2021/07/27 10:49:37;;;;;;;6.75;3.67;;;31.20;39.30;;;;;;6345570;28;20032;-76
2021/07/27 10:52:39;;;;;;;9.52;4.35;;;31.20;39.30;;;;;;6347237;28;20027;-76
2021/07/27 10:55:47;;;;;;;8.95;3.75;;;31.20;39.20;;;;;;6328597;28;20499;-76
2021/07/27 10:58:47;;;;;;;6.20;3.60;;;31.20;39.30;;;;;;6346896;28;20047;-75
2021/07/27 11:01:49;;;;;;;16.00;4.38;;;31.20;39.30;;;;;;6336643;28;20039;-76
2021/07/27 11:04:50;;;;;;;15.38;4.88;;;31.40;39.30;;;;;;6316295;28;20036;-76
2021/07/27 11:07:51;;;;;;;10.27;3.88;;;31.80;38.30;;;;;;6330678;28;20036;-76
2021/07/27 11:11:09;;;;;;;6.45;3.35;;;32.40;37.40;;;;;;6348616;28;20039;-76
2021/07/27 11:14:10;;;;;;;13.25;4.03;;;32.70;36.80;;;;;;6311572;28;20122;-77
2021/07/27 11:17:11;;;;;;;11.90;4.03;;;32.70;36.60;;;;;;6321445;28;20409;-76
2021/07/27 11:20:15;;;;;;;9.85;3.65;;;32.60;36.70;;;;;;6328512;28;20168;-75
2021/07/27 11:23:18;;;;;;;6.55;3.33;;;32.70;36.40;;;;;;6312365;28;20410;-76
2021/07/27 11:26:19;;;;;;;10.00;3.88;;;32.70;35.80;;;;;;6328327;28;20444;-76
2021/07/27 11:29:20;;;;;;;9.10;3.30;;;33.00;35.00;;;;;;6312416;28;20040;-76
2021/07/27 11:32:25;;;;;;;6.75;2.88;;;33.60;33.70;;;;;;6321537;28;20039;-77
2021/07/27 11:35:30;;;;;;;9.80;3.28;;;34.10;32.80;;;;;;6328291;28;20044;-77
2021/07/27 11:38:34;;;;;;;14.88;4.75;;;34.80;31.10;;;;;;6310144;28;20031;-75
2021/07/27 11:41:35;;;;;;;4.57;2.88;;;35.50;30.50;;;;;;6311151;28;20435;-76
2021/07/27 11:44:36;;;;;;;7.65;3.42;;;36.20;29.50;;;;;;6311058;28;20114;-76
2021/07/27 11:47:41;;;;;;;5.07;3.38;;;36.40;28.80;;;;;;6327670;28;20043;-77
2021/07/27 11:50:43;;;;;;;7.03;3.78;;;36.30;28.90;;;;;;6328011;28;20034;-75
2021/07/27 11:53:54;;;;;;;14.85;3.20;;;36.20;29.30;;;;;;6326884;28;20038;-77
2021/07/27 11:56:55;;;;;;;8.32;2.97;;;36.10;29.30;;;;;;6328482;28;20027;-76
2021/07/27 12:00:13;;;;;;;9.43;3.22;;;36.20;29.20;;;;;;6346161;28;20027;-75
2021/07/27 12:03:14;;;;;;;12.30;3.20;;;36.30;29.20;;;;;;6315000;28;20051;-75
2021/07/27 12:06:15;;;;;;;6.72;3.78;;;36.50;29.00;;;;;;6328271;28;20434;-75
2021/07/27 12:09:17;;;;;;;8.15;3.03;;;36.40;29.00;;;;;;6317326;28;20070;-77
2021/07/27 12:12:18;;;;;;;6.85;3.10;;;36.30;29.10;;;;;;6345892;28;20036;-76
2021/07/27 12:15:19;;;;;;;10.38;3.15;;;36.40;29.10;;;;;;6345815;28;20048;-76
2021/07/27 12:18:20;;;;;;;7.05;3.42;;;36.70;28.80;;;;;;6311617;28;20082;-76
2021/07/27 12:21:21;;;;;;;11.57;3.28;;;37.00;28.40;;;;;;6345957;28;20035;-75
2021/07/27 12:24:22;;;;;;;11.00;3.80;;;37.40;28.30;;;;;;6328264;28;20058;-76
2021/07/27 12:27:24;;;;;;;16.10;3.30;;;37.80;28.00;;;;;;6345625;28;20420;-75
2021/07/27 12:30:27;;;;;;;14.77;3.42;;;38.20;27.50;;;;;;6327202;28;20448;-76
2021/07/27 12:33:30;;;;;;;9.45;3.63;;;38.40;27.40;;;;;;6309967;28;20114;-75
2021/07/27 12:36:33;;;;;;;8.10;3.22;;;38.60;27.00;;;;;;6310359;28;20099;-76
2021/07/27 12:39:34;;;;;;;7.43;3.72;;;38.60;26.90;;;;;;6344823;28;20440;-76
2021/07/27 12:42:35;;;;;;;7.78;3.85;;;38.40;27.10;;;;;;6300278;28;20051;-75
2021/07/27 12:45:38;;;;;;;4.72;3.22;;;37.90;27.50;;;;;;6327824;28;20032;-75
2021/07/27 12:48:39;;;;;;;23.02;3.92;;;37.20;28.00;;;;;;6344988;28;20349;-75
2021/07/27 12:51:41;;;;;;;5.68;3.72;;;36.80;28.40;;;;;;6310793;28;20027;-75
2021/07/27 12:54:42;;;;;;;9.57;3.17;;;37.00;28.20;;;;;;6343085;28;20067;-76
2021/07/27 12:57:43;;;;;;;9.48;3.63;;;37.50;27.70;;;;;;6345545;28;20442;-75
2021/07/27 13:00:43;;;;;;;9.27;3.22;;;37.60;27.40;;;;;;6327645;28;20036;-75
2021/07/27 13:03:44;;;;;;;8.27;3.90;;;37.20;27.80;;;;;;6326704;28;20132;-75
2021/07/27 13:06:45;;;;;;;8.10;3.40;;;36.60;28.30;;;;;;6344771;28;20051;-75
2021/07/27 13:09:46;;;;;;;6.72;3.70;;;36.00;28.90;;;;;;6325678;28;20182;-78
2021/07/27 13:12:47;;;;;;;8.27;3.63;;;35.30;29.60;;;;;;6325554;28;20104;-75
2021/07/27 13:15:48;;;;;;;4.53;3.05;;;34.70;30.40;;;;;;6326943;28;20429;-76
2021/07/27 13:18:49;;;;;;;4.32;2.97;;;34.20;31.30;;;;;;6324905;28;20043;-75
2021/07/27 13:21:51;;;;;;;6.82;2.80;;;33.80;32.00;;;;;;6299856;28;20053;-76
2021/07/27 13:24:52;;;;;;;10.10;3.33;;;33.80;32.20;;;;;;6325537;28;20062;-76
2021/07/27 13:27:55;;;;;;;9.50;3.40;;;34.60;31.20;;;;;;6326845;28;20031;-76
2021/07/27 13:30:56;;;;;;;6.47;2.95;;;35.00;30.60;;;;;;6309408;28;20047;-76
2021/07/27 13:33:57;;;;;;;7.05;3.30;;;35.30;30.30;;;;;;6309631;28;20083;-76
2021/07/27 13:37:00;;;;;;;7.55;3.13;;;35.80;30.00;;;;;;6326822;28;20060;-75
2021/07/27 13:40:01;;;;;;;9.32;3.30;;;35.70;30.00;;;;;;6343270;28;20100;-76
2021/07/27 13:43:03;;;;;;;10.75;3.35;;;35.60;30.00;;;;;;6344188;28;20123;-76
2021/07/27 13:46:04;;;;;;;5.60;3.20;;;36.70;29.20;;;;;;6338702;28;20058;-76
2021/07/27 13:49:05;;;;;;;5.18;3.15;;;37.00;28.70;;;;;;6344179;28;20058;-76
2021/07/27 13:52:10;;;;;;;6.25;3.47;;;36.60;29.00;;;;;;6326529;28;20031;-76
2021/07/27 13:55:11;;;;;;;5.32;3.28;;;36.00;29.60;;;;;;6320732;28;20035;-76
2021/07/27 13:58:12;;;;;;;7.45;3.55;;;35.50;30.20;;;;;;6303589;28;20062;-75
2021/07/27 14:01:13;;;;;;;5.00;3.47;;;35.00;30.80;;;;;;6326345;28;20042;-76
2021/07/27 14:04:14;;;;;;;7.07;3.53;;;34.60;31.40;;;;;;6309920;28;20044;-76
2021/07/27 14:07:15;;;;;;;10.32;3.45;;;34.30;32.00;;;;;;6313655;28;20040;-76
2021/07/27 14:10:16;;;;;;;9.98;3.63;;;34.10;32.50;;;;;;6330939;28;20399;-76
2021/07/27 14:13:17;;;;;;;15.23;3.72;;;33.90;32.80;;;;;;6312192;28;20115;-76
2021/07/27 14:16:18;;;;;;;8.93;3.85;;;34.00;32.90;;;;;;6329906;28;20068;-76
2021/07/27 14:19:20;;;;;;;5.38;3.17;;;35.10;31.60;;;;;;6315791;28;20036;-76
2021/07/27 14:22:21;;;;;;;14.50;4.55;;;35.40;30.90;;;;;;6314376;28;20123;-76
2021/07/27 14:25:24;;;;;;;11.48;3.50;;;35.30;31.00;;;;;;6349511;28;20036;-76
2021/07/27 14:28:25;;;;;;;8.65;3.60;;;35.00;31.40;;;;;;6331055;28;20085;-76
2021/07/27 14:31:26;;;;;;;9.18;3.42;;;34.80;31.70;;;;;;6311764;28;20115;-76
2021/07/27 14:34:28;;;;;;;6.78;3.47;;;35.00;32.00;;;;;;6349204;28;20103;-76
2021/07/27 14:37:28;;;;;;;4.80;3.15;;;34.80;31.80;;;;;;6348916;28;20032;-76
2021/07/27 14:40:30;;;;;;;8.90;3.97;;;34.70;32.00;;;;;;6330894;28;20039;-76
2021/07/27 14:43:31;;;;;;;7.70;3.50;;;34.50;32.40;;;;;;6311778;28;20070;-76
2021/07/27 14:46:32;;;;;;;10.30;3.72;;;34.30;32.80;;;;;;6331989;28;20032;-76
2021/07/27 14:49:33;;;;;;;6.55;4.10;;;34.10;33.10;;;;;;6348570;28;20071;-76
2021/07/27 14:52:35;;;;;;;8.18;3.35;;;33.90;33.20;;;;;;6349262;28;20050;-77
2021/07/27 14:55:36;;;;;;;9.65;3.80;;;33.80;33.40;;;;;;6313694;28;20056;-76
2021/07/27 14:58:37;;;;;;;8.32;3.10;;;34.20;33.10;;;;;;6348953;28;20058;-76
2021/07/27 15:01:38;;;;;;;12.60;3.97;;;35.10;31.90;;;;;;6331143;28;20042;-76
2021/07/27 15:04:39;;;;;;;7.43;4.18;;;35.30;31.70;;;;;;6347956;28;20028;-76
2021/07/27 15:07:41;;;;;;;9.70;3.40;;;35.20;32.00;;;;;;6313786;28;20039;-76
2021/07/27 15:10:42;;;;;;;10.10;3.55;;;35.00;32.70;;;;;;6317604;28;20469;-75
2021/07/27 15:13:43;;;;;;;8.05;3.50;;;34.70;33.20;;;;;;6347748;28;20148;-75
2021/07/27 15:16:44;;;;;;;8.40;4.18;;;34.50;33.60;;;;;;6312921;28;20419;-76
2021/07/27 15:19:45;;;;;;;9.13;3.55;;;34.30;34.00;;;;;;6320258;28;20023;-75
2021/07/27 15:22:45;;;;;;;9.02;3.60;;;34.10;34.30;;;;;;6346800;28;20077;-76
2021/07/27 15:25:46;;;;;;;8.43;3.53;;;34.10;34.50;;;;;;6312328;28;20027;-77
2021/07/27 15:28:47;;;;;;;11.35;3.45;;;34.30;34.40;;;;;;6329800;28;20468;-75
2021/07/27 15:31:48;;;;;;;8.43;3.72;;;34.70;33.90;;;;;;6322035;28;20470;-76
2021/07/27 15:34:49;;;;;;;8.80;3.90;;;34.80;33.70;;;;;;6347120;28;20100;-76
2021/07/27 15:37:50;;;;;;;5.65;3.53;;;34.80;33.80;;;;;;6347108;28;20054;-76
2021/07/27 15:40:51;;;;;;;7.65;3.22;;;34.70;33.90;;;;;;6328202;28;20031;-76
2021/07/27 15:43:52;;;;;;;8.70;3.20;;;35.00;33.40;;;;;;6329384;28;20461;-76
2021/07/27 15:46:52;;;;;;;12.30;4.25;;;35.50;32.60;;;;;;6328857;28;20039;-77
2021/07/27 15:49:54;;;;;;;8.15;4.55;;;35.70;32.40;;;;;;6309342;28;20051;-77
2021/07/27 15:52:55;;;;;;;5.63;3.38;;;35.90;32.10;;;;;;6312650;28;20412;-78
2021/07/27 15:55:55;;;;;;;9.95;3.72;;;36.20;31.50;;;;;;6329271;28;20138;-76
2021/07/27 15:58:57;;;;;;;6.78;3.75;;;36.20;31.50;;;;;;6329036;28;20054;-76
2021/07/27 16:01:58;;;;;;;7.22;4.13;;;35.90;32.00;;;;;;6327925;28;20031;-76
2021/07/27 16:04:59;;;;;;;7.22;3.60;;;35.60;32.20;;;;;;6327510;28;20376;-76
2021/07/27 16:08:00;;;;;;;7.07;3.20;;;35.50;32.40;;;;;;6318744;28;20040;-76